Time;durP1;ratioP1;P1;durP2;ratioP2;P2;SDS_P1;SDS_P2;PMS_P1;PMS_P2;Temp;Humidity;BMP_temperature;BMP_pressure;BME280_temperature;BME280_humidity;BME280_pressure;Samples;Min_cycle;Max_cycle;Signal;HPM_P1;HPM_P2
2022/08/05 00:03:45;;;;;;;8.45;4.30;;;;;;;22.59;51.20;99983.00;10415759;28;20048;-70
2022/08/05 00:08:46;;;;;;;10.48;3.90;;;;;;;22.46;51.65;99980.69;10414927;28;20416;-70
2022/08/05 00:13:47;;;;;;;9.70;4.65;;;;;;;22.34;52.48;99978.94;10429735;28;20037;-70
2022/08/05 00:18:48;;;;;;;16.13;5.00;;;;;;;22.10;53.06;99977.56;10453107;28;20064;-70
2022/08/05 00:23:49;;;;;;;9.75;4.53;;;;;;;21.97;53.48;99976.06;10455528;28;20083;-70
2022/08/05 00:28:50;;;;;;;10.98;4.45;;;;;;;21.88;53.61;99975.69;10455802;28;20487;-70
2022/08/05 00:33:51;;;;;;;14.52;4.50;;;;;;;21.95;53.49;99983.59;10456377;28;20063;-70
2022/08/05 00:38:52;;;;;;;14.40;5.38;;;;;;;21.88;53.93;99983.00;10455799;28;20139;-70
2022/08/05 00:43:52;;;;;;;12.68;5.00;;;;;;;21.17;54.18;99872.03;10455617;28;20045;-70
2022/08/05 00:48:53;;;;;;;10.23;4.88;;;;;;;21.71;54.98;99963.31;10455089;28;20455;-70
2022/08/05 00:53:55;;;;;;;32.65;6.35;;;;;;;21.70;55.57;99967.88;10455228;28;20512;-70
2022/08/05 00:58:56;;;;;;;36.60;6.20;;;;;;;21.52;56.00;99965.50;10454983;28;20052;-70
2022/08/05 01:03:56;;;;;;;72.80;8.60;;;;;;;21.16;56.98;99932.53;10454732;28;20071;-70
2022/08/05 01:08:59;;;;;;;7.88;5.10;;;;;;;21.07;56.92;99909.72;10455598;28;20502;-71
2022/08/05 01:14:13;;;;;;;18.90;5.28;;;;;;;21.45;58.57;99975.63;10453289;28;20387;-70
2022/08/05 01:19:17;;;;;;;48.85;8.27;;;;;;;21.33;59.36;99968.44;10454768;28;20076;-70
2022/08/05 01:24:40;;;;;;;127.65;14.10;;;;;;;21.29;60.34;99972.69;10453785;28;20120;-70
2022/08/05 01:29:46;;;;;;;186.33;16.60;;;;;;;21.12;59.93;99971.88;10453816;28;20037;-70
2022/08/05 01:34:52;;;;;;;163.63;16.13;;;;;;;21.00;59.79;99969.28;10454786;28;20500;-70
2022/08/05 01:39:54;;;;;;;423.00;30.70;;;;;;;20.69;59.96;99963.38;10454140;28;20095;-70
2022/08/05 01:44:57;;;;;;;381.75;29.65;;;;;;;20.04;59.98;99880.16;10454236;28;20041;-70
2022/08/05 01:50:01;;;;;;;334.50;28.20;;;;;;;20.22;61.35;99920.44;10454239;28;20047;-71
2022/08/05 01:55:07;;;;;;;207.15;17.90;;;;;;;19.67;62.04;99833.91;10454196;28;20091;-70
2022/08/05 02:00:09;;;;;;;36.28;7.85;;;;;;;20.23;60.65;99927.47;10453636;28;20037;-70
2022/08/05 02:05:12;;;;;;;26.63;8.95;;;;;;;20.44;60.82;99955.63;10453081;28;20049;-70
2022/08/05 02:10:13;;;;;;;26.58;7.70;;;;;;;20.47;60.48;99965.13;10453650;28;20032;-70
2022/08/05 02:15:19;;;;;;;21.48;6.13;;;;;;;20.24;62.52;99928.28;10453573;28;20106;-73
2022/08/05 02:20:23;;;;;;;23.55;7.43;;;;;;;20.44;62.99;99987.19;10425973;28;20045;-70
2022/08/05 02:25:30;;;;;;;20.13;6.07;;;;;;;20.56;64.58;100009.56;10412019;28;20053;-70
2022/08/05 02:30:38;;;;;;;245.95;22.38;;;;;;;20.12;64.51;99936.41;10416715;28;20068;-70
2022/08/05 02:35:41;;;;;;;298.60;22.90;;;;;;;20.42;64.14;99979.31;10418757;28;20042;-70
2022/08/05 02:40:44;;;;;;;205.75;16.83;;;;;;;20.45;64.59;99991.50;10419122;28;20120;-70
2022/08/05 02:45:46;;;;;;;85.78;9.43;;;;;;;20.63;64.79;100010.22;10418514;28;20099;-71
2022/08/05 02:50:50;;;;;;;19.50;6.90;;;;;;;20.83;64.45;100025.97;10419241;28;20555;-70
2022/08/05 02:55:52;;;;;;;;;;;;;;;21.31;62.63;100024.59;10419385;28;20033;-70
2022/08/05 03:00:55;;;;;;;308.73;23.27;;;;;;;20.95;63.42;99958.41;10417765;28;20343;-70
2022/08/05 03:05:57;;;;;;;68.68;9.43;;;;;;;22.04;60.94;100016.44;10418122;28;20042;-71
2022/08/05 03:10:58;;;;;;;98.75;11.38;;;;;;;22.53;59.51;99965.91;10418308;28;20066;-70
2022/08/05 03:15:59;;;;;;;20.80;5.97;;;;;;;24.06;55.71;100014.97;10417694;28;20437;-71
2022/08/05 03:21:00;;;;;;;17.17;6.93;;;;;;;25.23;52.65;100003.53;10417325;28;20519;-71
2022/08/05 03:26:02;;;;;;;20.77;9.75;;;;;;;26.39;49.62;100019.78;10416795;28;20398;-71
2022/08/05 03:31:04;;;;;;;25.83;10.32;;;;;;;27.27;47.91;99984.56;10417269;28;20057;-72
2022/08/05 03:36:05;;;;;;;30.70;10.55;;;;;;;28.22;45.50;100008.31;10416843;28;20041;-71
2022/08/05 03:41:06;;;;;;;16.05;7.57;;;;;;;29.10;44.23;100013.34;10416073;28;20047;-72
2022/08/05 03:46:08;;;;;;;19.27;9.75;;;;;;;29.67;42.33;100019.44;10416515;28;20504;-71
2022/08/05 03:51:17;;;;;;;28.23;9.23;;;;;;;30.15;39.57;99986.16;10425139;28;20041;-71
2022/08/05 03:56:28;;;;;;;22.27;7.53;;;;;;;30.98;38.02;100010.59;10415712;28;20037;-72
2022/08/05 04:01:31;;;;;;;20.00;7.17;;;;;;;31.50;38.07;100026.56;10415484;28;20402;-71
2022/08/05 04:06:34;;;;;;;25.60;7.05;;;;;;;31.79;37.34;100010.38;10426955;28;20131;-72
2022/08/05 04:11:35;;;;;;;;;;;;;;;33.59;36.69;100027.59;10457722;28;20443;-71
2022/08/05 04:16:37;;;;;;;15.70;6.70;;;;;;;33.13;35.44;100027.22;10456743;28;19963;-72
2022/08/05 04:21:39;;;;;;;32.80;7.82;;;;;;;33.79;34.12;100023.31;10445600;28;20135;-72
2022/08/05 04:26:39;;;;;;;20.63;5.90;;;;;;;33.57;32.35;99983.88;10420134;28;20443;-73
2022/08/05 04:31:41;;;;;;;29.48;5.35;;;;;;;34.17;31.06;100023.28;10361961;28;20050;-72
2022/08/05 04:36:41;;;;;;;10.27;3.70;;;;;;;34.54;29.94;100032.59;10344799;28;20501;-74
2022/08/05 04:41:42;;;;;;;13.27;4.65;;;;;;;34.34;29.47;100033.38;10346487;28;20046;-73
2022/08/05 04:46:43;;;;;;;12.43;4.00;;;;;;;34.16;29.36;100037.38;10372361;28;20034;-72
2022/08/05 04:51:44;;;;;;;14.65;3.80;;;;;;;33.97;27.89;100024.81;10372179;28;20464;-74
2022/08/05 04:56:45;;;;;;;10.10;4.40;;;;;;;33.35;29.03;100028.13;10372504;28;20100;-76
2022/08/05 05:01:45;;;;;;;19.77;4.80;;;;;;;32.96;28.81;100007.97;10370213;28;20045;-76
2022/08/05 05:06:46;;;;;;;16.83;4.40;;;;;;;33.00;28.66;100030.97;10373321;28;20042;-75
2022/08/05 05:11:47;;;;;;;10.80;4.55;;;;;;;32.53;29.11;100041.00;10372771;28;20049;-77
2022/08/05 05:16:48;;;;;;;8.95;4.03;;;;;;;31.99;29.33;100035.69;10372603;28;20041;-75
2022/08/05 05:21:49;;;;;;;15.13;4.38;;;;;;;31.32;29.99;99954.28;10372272;28;20038;-76
2022/08/05 05:26:49;;;;;;;13.70;4.35;;;;;;;32.12;30.01;100034.75;10372498;28;20524;-78
2022/08/05 05:31:50;;;;;;;11.98;4.15;;;;;;;32.11;29.33;100038.63;10372633;28;20066;-77
2022/08/05 05:36:51;;;;;;;11.82;4.65;;;;;;;31.97;29.05;100038.75;10371639;28;20077;-76
2022/08/05 05:41:52;;;;;;;12.30;4.30;;;;;;;31.95;29.60;100034.69;10372014;28;20042;-77
2022/08/05 05:46:52;;;;;;;16.25;4.60;;;;;;;31.79;29.45;100015.88;10371529;28;20053;-76
2022/08/05 05:51:54;;;;;;;10.88;4.50;;;;;;;31.98;29.84;100025.81;10372687;28;20045;-76
2022/08/05 05:56:54;;;;;;;7.88;3.72;;;;;;;32.01;28.57;100041.66;10371823;28;20049;-72
2022/08/05 06:01:55;;;;;;;12.15;4.18;;;;;;;32.04;29.39;100041.84;10371649;28;20112;-73
2022/08/05 06:06:56;;;;;;;9.90;4.53;;;;;;;31.89;29.03;99978.25;10378135;28;20042;-75
2022/08/05 06:11:57;;;;;;;13.57;4.32;;;;;;;32.11;29.85;99980.94;10378884;28;20049;-76
2022/08/05 06:16:58;;;;;;;11.40;4.30;;;;;;;32.68;29.52;100032.25;10379115;28;20405;-76
2022/08/05 06:21:59;;;;;;;13.63;4.53;;;;;;;32.18;29.97;99951.03;10378983;28;20048;-77
2022/08/05 06:27:00;;;;;;;9.45;4.10;;;;;;;32.46;30.07;99959.81;10378304;28;20049;-78
2022/08/05 06:32:00;;;;;;;32.15;5.05;;;;;;;32.42;29.43;99950.53;10379033;28;20153;-76
2022/08/05 06:37:01;;;;;;;8.75;4.10;;;;;;;32.97;29.84;100007.66;10378382;28;20042;-76
2022/08/05 06:42:02;;;;;;;20.30;4.80;;;;;;;33.21;29.64;100006.34;10377589;28;20050;-80
2022/08/05 06:47:04;;;;;;;10.80;4.40;;;;;;;33.20;29.55;100021.22;10377346;28;20183;-76
2022/08/05 06:52:04;;;;;;;13.75;4.22;;;;;;;33.42;29.05;100003.69;10377213;28;20045;-73
2022/08/05 06:57:05;;;;;;;11.88;4.30;;;;;;;33.58;29.44;100004.75;10377269;28;20038;-77
2022/08/05 07:02:07;;;;;;;8.88;4.18;;;;;;;32.81;29.74;99887.44;10376844;28;20042;-76
2022/08/05 07:07:08;;;;;;;14.65;4.47;;;;;;;33.49;29.62;100009.47;10376758;28;20145;-74
2022/08/05 07:16:48;;;;;;;14.73;4.57;;;;;;;33.60;30.64;100007.19;10375844;28;20133;-75
2022/08/05 07:17:29;;;;;;;15.77;4.60;;;;;;;33.60;29.89;99954.88;10375890;28;20046;-78
2022/08/05 07:22:30;;;;;;;15.90;4.65;;;;;;;33.96;30.55;99998.41;10376185;28;20041;-74
2022/08/05 07:27:31;;;;;;;11.05;3.83;;;;;;;34.24;29.18;99986.91;10376337;28;20548;-74
2022/08/05 07:32:38;;;;;;;14.40;4.05;;;;;;;33.72;29.31;99968.75;10376315;28;20131;-71
2022/08/05 07:37:39;;;;;;;16.50;4.65;;;;;;;33.30;30.77;99937.50;10375552;28;20516;-74
2022/08/05 07:42:40;;;;;;;9.32;4.20;;;;;;;33.35;31.14;99976.63;10375321;28;20042;-76
2022/08/05 07:47:41;;;;;;;9.70;4.03;;;;;;;33.19;31.51;99957.09;10375240;28;20037;-76
2022/08/05 07:52:42;;;;;;;7.47;3.38;;;;;;;33.41;29.44;99911.19;10375370;28;20067;-72
2022/08/05 07:57:43;;;;;;;15.35;4.40;;;;;;;34.09;30.22;99944.22;10375798;28;20042;-74
2022/08/05 08:02:44;;;;;;;8.18;3.78;;;;;;;33.54;29.31;99928.66;10374574;28;20042;-74
2022/08/05 08:07:46;;;;;;;10.18;3.83;;;;;;;32.95;30.34;99951.31;10374575;28;20133;-76
2022/08/05 08:12:47;;;;;;;;;;;;;;;32.88;29.51;99951.03;10375076;28;20042;-73
2022/08/05 08:17:48;;;;;;;27.92;4.80;;;;;;;32.47;30.48;99944.13;10373987;28;19921;-74
2022/08/05 08:22:54;;;;;;;19.33;4.05;;;;;;;32.52;28.94;99946.72;10373588;28;20045;-75
2022/08/05 08:27:55;;;;;;;7.00;3.80;;;;;;;32.47;29.24;99880.88;10373568;28;20038;-74
2022/08/05 08:32:56;;;;;;;14.93;3.63;;;;;;;33.36;28.53;99914.16;10374160;28;20548;-73
2022/08/05 08:37:56;;;;;;;28.13;4.20;;;;;;;34.05;27.62;99924.78;10373713;28;20572;-76
2022/08/05 08:42:58;;;;;;;24.58;4.40;;;;;;;34.29;27.38;99870.91;10373556;28;20486;-73
2022/08/05 08:48:01;;;;;;;10.40;3.58;;;;;;;34.53;26.04;99851.69;10373026;28;20045;-77
2022/08/05 08:53:06;;;;;;;10.75;3.72;;;;;;;35.46;26.19;99933.28;10373737;28;20414;-76
2022/08/05 08:58:09;;;;;;;16.25;4.10;;;;;;;35.38;26.03;99930.28;10373914;28;20121;-75
2022/08/05 09:03:11;;;;;;;11.38;3.53;;;;;;;34.84;27.13;99932.38;10372979;28;20592;-76
2022/08/05 09:08:12;;;;;;;18.97;3.90;;;;;;;34.87;27.05;99915.13;10373005;28;20042;-76
2022/08/05 09:13:14;;;;;;;29.88;5.28;;;;;;;34.73;26.90;99919.03;10372731;28;20301;-73
2022/08/05 09:18:15;;;;;;;13.82;4.25;;;;;;;34.30;27.15;99867.81;10372996;28;20095;-76
2022/08/05 09:23:19;;;;;;;8.82;3.40;;;;;;;34.23;27.42;99864.81;10372330;28;20038;-75
2022/08/05 09:28:23;;;;;;;17.63;4.00;;;;;;;34.52;27.21;99902.50;10371783;28;20099;-74
2022/08/05 09:33:24;;;;;;;20.05;5.40;;;;;;;34.42;26.76;99839.47;10372630;28;20058;-75
2022/08/05 09:38:26;;;;;;;16.90;4.35;;;;;;;35.02;25.47;99866.75;10375014;28;20526;-73
2022/08/05 09:43:31;;;;;;;10.82;4.32;;;;;;;34.66;25.09;99890.38;10381320;28;20208;-74
2022/08/05 09:48:33;;;;;;;20.63;4.60;;;;;;;34.67;25.00;99889.22;10379078;28;20081;-74
2022/08/05 09:53:51;;;;;;;9.52;4.47;;;;;;;35.20;24.20;99866.19;10379467;28;20045;-72
2022/08/05 09:59:05;;;;;;;20.00;4.30;;;;;;;35.55;24.74;99871.28;10379947;28;20040;-74
2022/08/05 10:04:11;;;;;;;20.65;4.95;;;;;;;35.53;23.80;99851.44;10379202;28;20046;-72
2022/08/05 10:09:16;;;;;;;17.20;4.90;;;;;;;36.06;24.23;99859.78;10379569;28;20424;-76
2022/08/05 10:14:26;;;;;;;22.63;4.88;;;;;;;35.85;24.75;99777.81;10379367;28;20556;-77
2022/08/05 10:19:27;;;;;;;28.00;5.10;;;;;;;36.33;23.52;99819.44;10379212;28;20172;-78
2022/08/05 10:24:31;;;;;;;12.00;4.32;;;;;;;36.32;23.57;99835.25;10379666;28;20168;-73
2022/08/05 10:29:35;;;;;;;10.50;4.00;;;;;;;36.46;23.11;99804.38;10378177;28;20045;-74
2022/08/05 10:34:37;;;;;;;17.88;4.65;;;;;;;36.55;22.99;99818.06;10377993;28;20064;-74
2022/08/05 10:39:42;;;;;;;24.88;5.13;;;;;;;36.58;23.19;99817.34;10377815;28;20116;-76
2022/08/05 10:44:44;;;;;;;21.80;5.20;;;;;;;36.25;23.46;99818.44;10378362;28;20042;-74
2022/08/05 10:50:18;;;;;;;13.52;5.05;;;;;;;36.26;22.97;99810.97;10377517;28;20069;-74
2022/08/05 10:55:19;;;;;;;15.15;4.50;;;;;;;36.23;22.31;99817.19;10375875;28;20140;-76
2022/08/05 11:00:21;;;;;;;12.80;4.43;;;;;;;36.16;21.61;99792.13;10378027;28;20046;-75
2022/08/05 11:05:22;;;;;;;15.60;4.65;;;;;;;36.28;22.13;99803.09;10376802;28;20038;-74
2022/08/05 11:10:24;;;;;;;16.40;5.05;;;;;;;35.59;21.95;99738.78;10374638;28;20401;-76
2022/08/05 11:15:29;;;;;;;10.13;4.05;;;;;;;35.47;21.68;99736.84;10347597;28;20041;-73
2022/08/05 11:20:40;;;;;;;12.75;3.95;;;;;;;36.01;20.50;99790.88;10350849;28;20387;-72
2022/08/05 11:25:44;;;;;;;9.07;3.67;;;;;;;35.97;21.40;99779.72;10364467;28;20125;-74
2022/08/05 11:30:54;;;;;;;8.57;3.05;;;;;;;35.59;21.25;99780.22;10336239;28;20142;-74
2022/08/05 11:36:00;;;;;;;11.95;3.47;;;;;;;34.94;21.79;99739.56;10335683;28;20498;-74
2022/08/05 11:41:03;;;;;;;10.35;3.55;;;;;;;35.04;22.19;99759.56;10365173;28;20037;-73
2022/08/05 11:46:04;;;;;;;20.35;3.30;;;;;;;35.12;22.39;99765.00;10375825;28;20073;-75
2022/08/05 11:51:06;;;;;;;16.60;3.75;;;;;;;35.07;22.99;99761.66;10375147;28;20117;-75
2022/08/05 11:56:07;;;;;;;14.95;4.05;;;;;;;34.71;22.85;99699.81;10375398;28;20046;-74
2022/08/05 12:01:19;;;;;;;27.23;4.15;;;;;;;34.97;21.80;99747.16;10373626;28;20401;-76
2022/08/05 12:06:27;;;;;;;10.02;3.35;;;;;;;34.91;22.78;99762.34;10375027;28;20046;-75
2022/08/05 12:11:30;;;;;;;17.90;3.40;;;;;;;34.41;21.70;99705.50;10357060;28;20133;-73
2022/08/05 12:16:33;;;;;;;90.18;7.05;;;;;;;34.36;21.90;99710.44;10371860;28;20052;-77
2022/08/05 12:21:49;;;;;;;10.10;3.60;;;;;;;34.70;21.81;99783.69;10343439;28;20053;-76
2022/08/05 12:39:51;;;;;;;15.07;3.25;;;;;;;34.53;22.17;99752.41;10440894;28;20396;-80
2022/08/05 12:44:51;;;;;;;12.23;3.00;;;;;;;34.51;22.76;99760.22;10437113;27;20049;-77
2022/08/05 12:49:52;;;;;;;13.68;3.33;;;;;;;34.41;22.72;99751.59;10437182;28;20037;-79
2022/08/05 12:54:53;;;;;;;12.68;2.90;;;;;;;33.99;22.54;99708.41;10434074;28;20045;-75
2022/08/05 12:59:54;;;;;;;13.20;3.28;;;;;;;34.18;22.72;99757.50;10440113;28;20056;-80
2022/08/05 13:04:55;;;;;;;20.73;3.95;;;;;;;34.12;23.17;99749.78;10440789;28;20041;-77
2022/08/05 13:10:00;;;;;;;13.77;2.97;;;;;;;33.98;22.82;99750.84;10440040;28;20105;-76
2022/08/05 13:15:01;;;;;;;9.38;2.92;;;;;;;34.01;22.43;99765.91;10440314;28;20081;-77
2022/08/05 13:20:09;;;;;;;12.15;3.20;;;;;;;33.89;23.03;99763.91;10440533;28;20060;-78
2022/08/05 13:25:13;;;;;;;20.00;3.85;;;;;;;33.78;23.11;99785.59;10439660;28;20072;-76
2022/08/05 13:30:17;;;;;;;18.13;4.07;;;;;;;33.66;23.09;99785.53;10440546;28;20550;-76
2022/08/05 13:35:19;;;;;;;6.10;3.17;;;;;;;33.63;23.20;99784.25;10440150;28;20053;-79
2022/08/05 13:40:20;;;;;;;10.90;3.20;;;;;;;33.53;23.83;99781.06;10413672;28;20049;-80
2022/08/05 13:45:21;;;;;;;21.02;3.85;;;;;;;33.15;23.83;99724.97;10412758;28;20046;-75
2022/08/05 13:50:21;;;;;;;14.43;3.85;;;;;;;33.58;23.71;99806.47;10408349;28;20056;-74
2022/08/05 13:55:22;;;;;;;19.25;6.00;;;;;;;33.08;24.26;99757.69;10382920;28;20094;-77
2022/08/05 14:00:23;;;;;;;8.40;3.40;;;;;;;33.23;24.29;99803.09;10390208;28;20124;-79
2022/08/05 14:05:24;;;;;;;24.85;4.32;;;;;;;33.29;24.68;99817.50;10410210;28;20052;-76
2022/08/05 14:10:27;;;;;;;21.35;6.97;;;;;;;32.81;25.04;99761.72;10412530;28;20039;-77
2022/08/05 14:15:28;;;;;;;25.23;4.70;;;;;;;33.03;25.06;99804.69;10410483;28;20124;-74
2022/08/05 14:20:30;;;;;;;25.15;4.25;;;;;;;33.10;25.52;99817.94;10410646;28;20120;-75
2022/08/05 14:25:30;;;;;;;17.73;3.28;;;;;;;32.70;25.25;99753.03;10409666;28;20037;-79
2022/08/05 14:30:31;;;;;;;12.93;6.07;;;;;;;33.04;25.18;99822.00;10410478;28;20557;-77
2022/08/05 14:35:32;;;;;;;14.48;3.67;;;;;;;33.00;25.56;99815.53;10409139;28;20148;-76
2022/08/05 14:40:33;;;;;;;15.43;3.95;;;;;;;32.93;25.56;99808.56;10410191;28;20062;-76
2022/08/05 14:45:34;;;;;;;25.77;4.10;;;;;;;32.84;25.52;99790.50;10409525;28;20050;-77
2022/08/05 14:50:34;;;;;;;10.60;3.10;;;;;;;32.84;25.92;99801.50;10409260;28;20033;-75
2022/08/05 14:55:35;;;;;;;22.40;3.72;;;;;;;32.88;25.63;99807.97;10409295;28;20045;-73
2022/08/05 15:00:37;;;;;;;17.63;3.25;;;;;;;32.83;25.65;99811.69;10409686;28;20114;-74
2022/08/05 15:05:37;;;;;;;18.67;3.40;;;;;;;32.64;25.85;99787.34;10408973;28;20568;-72
2022/08/05 15:10:40;;;;;;;13.27;3.00;;;;;;;32.68;25.70;99802.06;10408538;28;20166;-76
2022/08/05 15:15:41;;;;;;;8.00;2.47;;;;;;;32.59;26.01;99794.97;10409107;28;20037;-76
2022/08/05 15:20:42;;;;;;;16.25;3.22;;;;;;;31.52;25.96;99632.56;10409135;28;20048;-76
2022/08/05 15:25:42;;;;;;;17.98;3.40;;;;;;;32.37;25.90;99785.81;10408960;28;20534;-76
2022/08/05 15:30:44;;;;;;;8.98;3.00;;;;;;;32.33;25.94;99809.56;10408140;28;20505;-76
2022/08/05 15:35:45;;;;;;;12.17;3.23;;;;;;;31.88;26.00;99746.72;10409081;28;20064;-76
2022/08/05 15:40:46;;;;;;;17.60;3.67;;;;;;;32.09;26.72;99801.84;10409200;28;20048;-76
2022/08/05 15:45:47;;;;;;;14.73;3.60;;;;;;;32.03;26.38;99816.88;10407832;28;20136;-76
2022/08/05 15:50:48;;;;;;;23.30;3.42;;;;;;;31.96;26.53;99802.84;10404256;28;20033;-77
2022/08/05 15:55:49;;;;;;;14.82;3.25;;;;;;;31.57;27.46;99758.69;10408083;28;20128;-77
2022/08/05 16:00:50;;;;;;;18.25;4.32;;;;;;;31.21;28.21;99733.47;10407003;28;20136;-77
2022/08/05 16:05:50;;;;;;;36.42;5.03;;;;;;;31.47;29.49;99837.81;10407701;28;20041;-77
2022/08/05 16:10:51;;;;;;;16.20;4.32;;;;;;;31.06;31.19;99860.91;10394761;28;20136;-73
2022/08/05 16:15:52;;;;;;;11.98;5.65;;;;;;;30.45;33.09;99869.59;10366093;28;20583;-73
2022/08/05 16:20:53;;;;;;;14.02;6.18;;;;;;;30.09;33.78;99887.97;10366385;28;20044;-74
2022/08/05 16:26:08;;;;;;;13.10;5.47;;;;;;;29.84;35.76;99903.84;10365699;28;20112;-72
2022/08/05 16:31:09;;;;;;;11.52;5.45;;;;;;;29.55;35.94;99901.41;10366393;28;20083;-72
2022/08/05 16:36:10;;;;;;;10.38;5.10;;;;;;;28.49;36.64;99776.56;10374131;28;20126;-71
2022/08/05 16:41:11;;;;;;;13.90;4.63;;;;;;;29.23;37.13;99916.03;10382537;28;20042;-71
2022/08/05 16:46:11;;;;;;;15.93;4.97;;;;;;;29.11;37.06;99924.72;10375230;28;20483;-71
2022/08/05 16:51:13;;;;;;;13.18;4.40;;;;;;;28.87;38.02;99931.13;10366275;28;20042;-71
2022/08/05 16:56:14;;;;;;;9.93;4.50;;;;;;;28.59;38.47;99910.28;10365718;28;20527;-71
2022/08/05 17:01:15;;;;;;;8.43;4.78;;;;;;;28.66;39.19;99947.06;10365163;28;20045;-71
2022/08/05 17:06:16;;;;;;;20.70;5.20;;;;;;;28.55;39.75;99958.44;10364468;28;20058;-68
2022/08/05 17:11:16;;;;;;;11.57;5.75;;;;;;;28.22;41.04;99975.53;10376175;28;20042;-69
2022/08/05 17:16:17;;;;;;;10.35;5.50;;;;;;;27.47;41.94;99920.81;10372056;28;20548;-69
2022/08/05 17:21:18;;;;;;;13.45;6.25;;;;;;;27.70;42.79;99995.56;10378488;28;20033;-69
2022/08/05 17:26:19;;;;;;;8.38;5.32;;;;;;;27.49;43.67;100003.16;10378779;28;20132;-71
2022/08/05 17:31:20;;;;;;;12.57;4.78;;;;;;;27.45;44.87;100021.19;10371163;28;20087;-71
2022/08/05 17:36:20;;;;;;;12.40;5.03;;;;;;;26.63;46.53;99942.84;10403515;28;20060;-72
2022/08/05 17:41:22;;;;;;;11.80;4.78;;;;;;;26.93;49.55;100033.63;10409409;28;20039;-72
2022/08/05 17:46:22;;;;;;;13.32;5.00;;;;;;;26.60;51.01;100038.75;10402935;28;20063;-72
2022/08/05 17:51:23;;;;;;;10.13;4.93;;;;;;;26.18;52.97;100031.88;10403093;28;20053;-74
2022/08/05 17:56:24;;;;;;;12.07;5.22;;;;;;;25.69;54.98;100030.63;10389478;28;20061;-73
2022/08/05 18:01:25;;;;;;;9.30;4.78;;;;;;;24.53;56.86;99882.88;10394670;28;20056;-70
2022/08/05 18:06:26;;;;;;;10.82;5.45;;;;;;;25.18;57.44;100011.66;10402189;28;20064;-73
2022/08/05 18:11:27;;;;;;;14.88;5.65;;;;;;;24.96;58.76;100013.84;10397346;27;20084;-74
2022/08/05 18:16:28;;;;;;;8.45;5.50;;;;;;;25.00;60.19;100044.81;10390765;28;20124;-74
2022/08/05 18:21:28;;;;;;;26.85;5.88;;;;;;;24.91;61.83;100047.25;10398680;28;20059;-74
2022/08/05 18:26:29;;;;;;;17.70;5.35;;;;;;;24.85;63.18;100059.19;10408471;28;20038;-74
2022/08/05 18:31:30;;;;;;;10.88;5.38;;;;;;;24.51;64.12;100024.38;10371549;28;20041;-73
2022/08/05 18:36:31;;;;;;;11.25;5.72;;;;;;;24.62;64.37;100076.81;10401299;28;20068;-74
2022/08/05 18:41:32;;;;;;;9.40;6.38;;;;;;;24.62;66.66;100079.53;10409524;28;20408;-74
2022/08/05 18:46:33;;;;;;;12.32;5.68;;;;;;;24.59;67.60;100070.00;10386641;28;20136;-74
2022/08/05 18:57:01;;;;;;;9.48;5.88;;;;;;;24.13;69.30;100034.53;10397643;28;20042;-74
2022/08/05 19:02:01;;;;;;;12.32;6.40;;;;;;;24.32;68.21;100072.03;10380648;28;20034;-74
2022/08/05 19:07:02;;;;;;;10.43;6.07;;;;;;;24.38;68.65;100081.88;10370576;28;20042;-73
2022/08/05 19:12:03;;;;;;;11.02;5.32;;;;;;;24.31;68.15;100075.84;10382970;28;20034;-73
2022/08/05 19:17:04;;;;;;;8.40;5.43;;;;;;;24.16;67.74;100079.31;10389504;28;20060;-73
2022/08/05 19:22:05;;;;;;;10.35;5.45;;;;;;;24.10;67.42;100075.75;10378793;27;20607;-74
2022/08/05 19:27:07;;;;;;;8.40;5.80;;;;;;;24.28;68.10;100089.94;10366859;28;20167;-73
2022/08/05 19:32:08;;;;;;;7.80;5.28;;;;;;;24.25;68.33;100102.16;10367494;28;20126;-73
2022/08/05 19:37:10;;;;;;;10.55;5.63;;;;;;;24.27;69.45;100115.47;10401632;28;20473;-74
2022/08/05 19:42:10;;;;;;;9.35;5.50;;;;;;;24.17;68.68;100097.25;10408139;28;20447;-73
2022/08/05 19:47:12;;;;;;;17.70;5.43;;;;;;;24.22;68.32;100105.41;10407690;28;20050;-72
2022/08/05 19:52:14;;;;;;;11.52;5.55;;;;;;;24.09;68.36;100103.97;10407506;28;20397;-72
2022/08/05 19:57:15;;;;;;;9.35;5.32;;;;;;;24.11;68.34;100093.69;10406219;28;20042;-72
2022/08/05 20:02:16;;;;;;;6.60;5.15;;;;;;;24.19;67.64;100099.69;10407863;28;20138;-73
2022/08/05 20:07:16;;;;;;;10.93;5.63;;;;;;;23.95;66.85;100055.88;10408361;28;20132;-72
2022/08/05 20:12:17;;;;;;;5.97;4.85;;;;;;;24.12;66.86;100083.66;10407744;28;20130;-73
2022/08/05 20:17:19;;;;;;;7.80;5.13;;;;;;;24.09;66.86;100076.84;10407754;28;20136;-73
2022/08/05 20:22:20;;;;;;;12.50;5.57;;;;;;;24.05;67.43;100051.31;10407481;28;20455;-72
2022/08/05 20:27:22;;;;;;;10.18;5.82;;;;;;;23.65;67.46;99978.66;10406780;28;20038;-73
2022/08/05 20:32:23;;;;;;;10.13;5.72;;;;;;;23.65;67.85;99971.34;10407196;28;20049;-72
2022/08/05 20:37:24;;;;;;;9.68;5.55;;;;;;;23.22;67.54;99908.22;10406362;27;20547;-73
2022/08/05 20:42:25;;;;;;;12.30;5.45;;;;;;;23.93;67.36;100031.72;10397912;28;20072;-74
2022/08/05 20:47:26;;;;;;;9.35;5.38;;;;;;;23.78;67.76;99994.50;10391981;27;20044;-74
2022/08/05 20:52:27;;;;;;;9.80;5.80;;;;;;;23.73;67.64;99966.53;10374455;28;20496;-73
2022/08/05 20:57:29;;;;;;;8.95;6.93;;;;;;;23.75;66.85;99964.34;10413250;28;20037;-72
2022/08/05 21:02:30;;;;;;;9.93;6.72;;;;;;;23.56;66.17;99921.41;10413554;28;20446;-71
2022/08/05 21:07:31;;;;;;;11.27;6.28;;;;;;;23.52;65.88;99901.34;10412711;28;20046;-72
2022/08/05 21:12:32;;;;;;;15.98;6.70;;;;;;;23.74;65.94;99922.88;10413197;28;20041;-73
2022/08/05 21:17:33;;;;;;;13.13;6.53;;;;;;;22.90;65.50;99772.03;10413113;28;20542;-73
2022/08/05 21:22:34;;;;;;;18.15;7.35;;;;;;;23.71;65.45;99887.34;10413245;28;20037;-73
2022/08/05 21:27:34;;;;;;;12.07;7.00;;;;;;;22.82;65.20;99745.44;10412500;28;20042;-72
2022/08/05 21:32:35;;;;;;;7.90;6.30;;;;;;;23.42;65.17;99844.34;10412671;28;20068;-73
2022/08/05 21:37:36;;;;;;;12.18;6.68;;;;;;;23.73;64.92;99877.03;10411786;28;20081;-73
2022/08/05 21:42:37;;;;;;;12.27;6.20;;;;;;;23.90;65.03;99897.44;10412371;28;20061;-73
2022/08/05 21:47:38;;;;;;;19.75;6.38;;;;;;;23.84;65.30;99903.09;10411389;27;20041;-72
2022/08/05 21:52:39;;;;;;;12.02;6.68;;;;;;;23.81;65.85;99898.19;10412986;28;20030;-72
2022/08/05 21:57:40;;;;;;;13.20;7.13;;;;;;;23.83;66.50;99907.72;10411113;28;20534;-72
2022/08/05 22:02:41;;;;;;;18.27;7.15;;;;;;;23.91;66.81;99917.25;10411643;28;20409;-72
2022/08/05 22:07:42;;;;;;;15.57;7.68;;;;;;;23.90;67.25;99915.59;10411791;27;20144;-72
2022/08/05 22:12:44;;;;;;;17.55;7.05;;;;;;;23.67;67.23;99890.53;10410952;28;20033;-72
2022/08/05 22:17:44;;;;;;;15.68;7.18;;;;;;;23.86;67.42;99925.34;10411219;27;20414;-72
2022/08/05 22:28:05;;;;;;;20.23;6.57;;;;;;;23.85;67.87;99931.88;10410165;28;20068;-72
2022/08/05 22:33:09;;;;;;;19.63;7.65;;;;;;;23.81;69.66;99928.03;10410289;28;20113;-72
2022/08/05 22:38:10;;;;;;;26.17;7.88;;;;;;;23.32;69.28;99860.56;10410230;28;20055;-72
2022/08/05 22:43:11;;;;;;;15.70;7.97;;;;;;;23.72;69.73;99937.78;10406557;28;20038;-72
2022/08/05 22:48:12;;;;;;;22.38;8.05;;;;;;;23.74;70.46;99941.03;10409653;28;20049;-72
2022/08/05 22:53:13;;;;;;;15.35;7.53;;;;;;;23.71;70.62;99936.97;10409036;28;20072;-72
2022/08/05 22:58:13;;;;;;;14.05;7.72;;;;;;;23.67;70.54;99943.97;10409460;28;20588;-73
2022/08/05 23:03:15;;;;;;;12.93;7.72;;;;;;;23.27;70.72;99882.22;10409093;28;20069;-72
2022/08/05 23:08:15;;;;;;;13.90;7.32;;;;;;;23.59;71.14;99931.72;10409277;28;20041;-72
2022/08/05 23:13:16;;;;;;;13.00;7.28;;;;;;;23.13;72.00;99873.75;10409117;28;20131;-72
2022/08/05 23:18:17;;;;;;;13.77;7.70;;;;;;;23.07;71.84;99864.78;10408154;28;20037;-72
2022/08/05 23:23:18;;;;;;;14.68;7.22;;;;;;;23.57;71.93;99942.03;10409411;28;20037;-72
2022/08/05 23:28:19;;;;;;;19.50;6.68;;;;;;;23.53;71.90;99953.66;10408286;28;20042;-72
2022/08/05 23:33:20;;;;;;;21.23;7.63;;;;;;;23.46;72.54;99949.28;10408364;28;20082;-72